createdAt,value
2023-02-24T00:01:19.038Z,73.31
2023-02-24T00:03:23.900Z,73.66
2023-02-24T00:05:27.289Z,73.69
2023-02-24T00:07:30.712Z,73.90
2023-02-24T00:09:34.427Z,74.11
2023-02-24T00:11:39.809Z,74.22
2023-02-24T00:13:46.451Z,74.18
2023-02-24T00:16:01.025Z,74.43
2023-02-24T00:18:07.158Z,74.52
2023-02-24T00:20:13.371Z,74.50
2023-02-24T00:22:16.671Z,74.43
2023-02-24T00:24:20.286Z,74.38
2023-02-24T00:26:23.528Z,74.60
2023-02-24T00:28:28.319Z,74.39
2023-02-24T00:30:33.125Z,74.47
2023-02-24T00:32:37.121Z,74.42
2023-02-24T00:34:40.381Z,74.38
2023-02-24T00:36:44.997Z,74.24
2023-02-24T00:38:48.388Z,74.18
2023-02-24T00:40:52.099Z,73.77
2023-02-24T00:42:55.498Z,73.48
2023-02-24T00:44:58.938Z,73.29
2023-02-24T00:47:03.282Z,72.90
2023-02-24T00:49:10.545Z,72.68
2023-02-24T00:51:16.728Z,72.52
2023-02-24T00:53:21.559Z,72.36
2023-02-24T00:55:27.592Z,72.14
2023-02-24T00:57:31.098Z,72.23
2023-02-24T00:59:34.515Z,72.33
2023-02-24T01:01:38.244Z,71.93
2023-02-24T01:03:43.209Z,71.87
2023-02-24T01:05:46.603Z,72.17
2023-02-24T01:07:50.334Z,72.11
2023-02-24T01:09:55.248Z,71.81
2023-02-24T01:12:18.202Z,72.04
2023-02-24T01:14:24.851Z,72.16
2023-02-24T01:16:28.704Z,72.06
2023-02-24T01:18:32.114Z,72.44
2023-02-24T01:20:38.603Z,72.36
2023-02-24T01:22:43.130Z,72.51
2023-02-24T01:24:46.934Z,72.44
2023-02-24T01:26:51.830Z,72.57
2023-02-24T01:28:56.677Z,72.25
2023-02-24T01:31:03.216Z,72.31
2023-02-24T01:33:08.303Z,72.33
2023-02-24T01:35:14.396Z,72.31
2023-02-24T01:37:19.406Z,72.13
2023-02-24T01:39:22.980Z,72.08
2023-02-24T01:41:27.820Z,72.10
2023-02-24T01:43:33.214Z,71.76
2023-02-24T01:45:40.076Z,71.67
2023-02-24T01:47:47.360Z,71.67
2023-02-24T01:49:54.037Z,71.81
2023-02-24T01:52:02.164Z,71.56
2023-02-24T01:54:08.559Z,71.53
2023-02-24T01:56:13.891Z,71.39
2023-02-24T01:58:23.467Z,71.32
2023-02-24T02:00:38.498Z,71.30
2023-02-24T02:02:47.534Z,71.31
2023-02-24T02:04:54.074Z,71.34
2023-02-24T02:06:57.566Z,71.51
2023-02-24T02:09:01.862Z,71.31
2023-02-24T02:11:07.817Z,71.31
2023-02-24T02:13:13.196Z,71.51
2023-02-24T02:15:20.807Z,71.43
2023-02-24T02:17:32.159Z,71.57
2023-02-24T02:20:15.865Z,71.56
2023-02-24T02:23:09.642Z,71.80
2023-02-24T02:25:20.607Z,71.60
2023-02-24T02:27:34.783Z,71.65
2023-02-24T02:30:14.545Z,71.59
2023-02-24T02:33:01.974Z,71.83
2023-02-24T02:35:12.233Z,71.83
2023-02-24T02:37:22.423Z,71.85
2023-02-24T02:39:36.943Z,72.03
2023-02-24T02:41:48.835Z,72.05
2023-02-24T02:43:58.020Z,72.06
2023-02-24T02:46:09.578Z,72.03
2023-02-24T02:48:16.776Z,72.24
2023-02-24T02:50:27.114Z,72.24
2023-02-24T02:52:34.851Z,72.03
2023-02-24T02:54:49.669Z,72.32
2023-02-24T02:56:59.343Z,72.33
2023-02-24T02:59:05.384Z,72.05
2023-02-24T03:01:12.025Z,71.98
2023-02-24T03:03:19.660Z,71.97
2023-02-24T03:05:32.192Z,71.91
2023-02-24T03:07:42.124Z,71.81
2023-02-24T03:09:51.668Z,71.79
2023-02-24T03:11:59.892Z,72.02
2023-02-24T03:14:05.782Z,71.98
2023-02-24T03:16:11.724Z,71.90
2023-02-24T03:18:20.071Z,71.80
2023-02-24T03:20:29.498Z,71.65
2023-02-24T03:22:41.160Z,71.82
2023-02-24T03:24:46.446Z,71.81
2023-02-24T03:27:06.893Z,71.60
2023-02-24T03:29:19.305Z,71.73
2023-02-24T03:31:28.949Z,71.81
2023-02-24T03:33:38.366Z,71.84
2023-02-24T03:35:44.152Z,71.82
2023-02-24T03:37:49.932Z,71.92
2023-02-24T03:39:54.609Z,71.88
2023-02-24T03:42:05.561Z,71.86
2023-02-24T03:44:12.360Z,71.94
2023-02-24T03:46:17.089Z,71.86
2023-02-24T03:48:22.913Z,71.64
2023-02-24T03:50:27.131Z,71.76
2023-02-24T03:52:47.104Z,71.80
2023-02-24T03:55:07.527Z,71.81
2023-02-24T03:57:26.014Z,71.68
2023-02-24T03:59:46.729Z,71.72
2023-02-24T04:01:58.119Z,71.71
2023-02-24T04:04:14.696Z,71.44
2023-02-24T04:06:35.502Z,71.75
2023-02-24T04:08:47.688Z,71.55
2023-02-24T04:10:57.538Z,71.79
2023-02-24T04:13:11.296Z,71.75
2023-02-24T04:15:19.999Z,71.73
2023-02-24T04:17:28.516Z,71.83
2023-02-24T04:19:38.506Z,71.80
2023-02-24T04:21:44.991Z,72.13
2023-02-24T04:23:57.148Z,72.05
2023-02-24T04:26:01.557Z,72.05
2023-02-24T04:28:08.136Z,72.15
2023-02-24T04:30:14.218Z,72.26
2023-02-24T04:32:22.174Z,72.35
2023-02-24T04:34:26.478Z,72.52
2023-02-24T04:36:30.105Z,72.46
2023-02-24T04:38:33.637Z,72.66
2023-02-24T04:40:40.928Z,72.75
2023-02-24T04:42:48.970Z,72.77
2023-02-24T04:44:53.822Z,72.99
2023-02-24T04:46:57.311Z,72.85
2023-02-24T04:49:02.311Z,73.20
2023-02-24T04:51:06.716Z,73.23
2023-02-24T04:53:13.061Z,73.39
2023-02-24T04:55:17.298Z,73.60
2023-02-24T04:57:22.196Z,73.67
2023-02-24T04:59:25.855Z,73.68
2023-02-24T05:01:31.367Z,74.00
2023-02-24T05:03:36.056Z,74.07
2023-02-24T05:05:39.891Z,74.16
2023-02-24T05:07:47.599Z,74.41
2023-02-24T05:09:50.985Z,74.35
2023-02-24T05:11:54.359Z,74.39
2023-02-24T05:13:59.264Z,74.70
2023-02-24T05:16:07.473Z,74.68
2023-02-24T05:18:14.200Z,74.89
2023-02-24T05:20:35.018Z,74.97
2023-02-24T05:22:38.593Z,75.07
2023-02-24T05:24:42.389Z,75.19
2023-02-24T05:26:47.012Z,74.94
2023-02-24T05:28:52.394Z,75.16
2023-02-24T05:30:59.445Z,75.15
2023-02-24T05:33:03.003Z,75.15
2023-02-24T05:35:07.293Z,75.27
2023-02-24T05:37:11.318Z,75.18
2023-02-24T05:39:19.474Z,75.38
2023-02-24T05:41:23.680Z,75.20
2023-02-24T05:43:27.268Z,75.34
2023-02-24T05:45:31.360Z,75.16
2023-02-24T05:47:37.203Z,75.39
2023-02-24T05:49:41.082Z,75.17
2023-02-24T05:51:54.793Z,75.20
2023-02-24T05:54:00.323Z,75.25
2023-02-24T05:56:06.118Z,75.44
2023-02-24T05:58:09.728Z,75.41
2023-02-24T06:00:16.418Z,75.41
2023-02-24T06:02:27.690Z,75.81
2023-02-24T06:04:40.444Z,76.10
2023-02-24T06:06:44.085Z,76.14
2023-02-24T06:08:50.679Z,76.82
2023-02-24T06:10:54.203Z,77.17
2023-02-24T06:12:57.663Z,77.43
2023-02-24T06:15:02.314Z,78.00
2023-02-24T06:17:06.976Z,78.27
2023-02-24T06:19:11.738Z,78.81
2023-02-24T06:21:16.635Z,79.19
2023-02-24T06:23:20.037Z,79.52
2023-02-24T06:25:25.274Z,79.88
2023-02-24T06:27:28.705Z,80.18
2023-02-24T06:29:32.159Z,80.64
2023-02-24T06:31:35.656Z,80.93
2023-02-24T06:33:40.303Z,81.02
2023-02-24T06:35:43.809Z,81.47
2023-02-24T06:37:49.061Z,81.52
2023-02-24T06:39:52.535Z,81.66
2023-02-24T06:41:57.390Z,81.88
2023-02-24T06:44:00.927Z,82.27
2023-02-24T06:46:06.203Z,82.39
2023-02-24T06:48:09.787Z,82.73
2023-02-24T06:50:13.540Z,82.67
2023-02-24T06:52:19.160Z,82.98
2023-02-24T06:54:25.824Z,83.00
2023-02-24T06:56:32.039Z,83.30
2023-02-24T06:58:35.880Z,83.28
2023-02-24T07:00:39.409Z,83.49
2023-02-24T07:02:42.842Z,83.84
2023-02-24T07:04:46.283Z,83.68
2023-02-24T07:06:52.541Z,83.86
2023-02-24T07:08:57.105Z,83.96
2023-02-24T07:11:01.920Z,84.03
2023-02-24T07:13:06.716Z,84.17
2023-02-24T07:15:10.700Z,84.28
2023-02-24T07:17:14.877Z,84.48
2023-02-24T07:19:18.319Z,84.43
2023-02-24T07:21:23.582Z,84.59
2023-02-24T07:23:29.406Z,84.48
2023-02-24T07:25:35.628Z,84.78
2023-02-24T07:27:40.579Z,84.74
2023-02-24T07:29:44.056Z,84.72
2023-02-24T07:31:48.984Z,84.88
2023-02-24T07:33:55.739Z,84.80
2023-02-24T07:35:59.128Z,84.87
2023-02-24T07:38:05.097Z,85.17
2023-02-24T07:40:10.492Z,85.31
2023-02-24T07:42:15.037Z,85.08
2023-02-24T07:44:24.758Z,85.27
2023-02-24T07:46:29.491Z,85.54
2023-02-24T07:48:32.951Z,85.43
2023-02-24T07:50:38.095Z,85.60
2023-02-24T07:52:42.089Z,85.66
2023-02-24T07:54:45.428Z,85.59
2023-02-24T07:56:57.011Z,85.50
2023-02-24T07:59:02.843Z,85.81
2023-02-24T08:01:09.266Z,85.88
2023-02-24T08:03:13.668Z,85.83
2023-02-24T08:05:18.124Z,85.81
2023-02-24T08:07:25.657Z,85.91
2023-02-24T08:09:56.707Z,86.09
2023-02-24T08:12:01.263Z,86.17
2023-02-24T08:14:10.955Z,86.28
2023-02-24T08:16:15.875Z,86.29
2023-02-24T08:18:20.149Z,86.29
2023-02-24T08:20:25.237Z,86.39
2023-02-24T08:22:37.291Z,86.57
2023-02-24T08:24:40.755Z,86.35
2023-02-24T08:26:44.859Z,86.51
2023-02-24T08:28:48.361Z,86.66
2023-02-24T08:30:51.817Z,86.56
2023-02-24T08:32:59.860Z,86.50
2023-02-24T08:35:04.960Z,86.53
2023-02-24T08:37:08.666Z,86.70
2023-02-24T08:39:14.660Z,86.66
2023-02-24T08:41:29.261Z,86.73
2023-02-24T08:43:38.804Z,86.69
2023-02-24T08:45:42.258Z,86.91
2023-02-24T08:47:45.629Z,86.98
2023-02-24T08:49:53.897Z,87.12
2023-02-24T08:52:02.371Z,87.18
2023-02-24T08:54:11.200Z,87.02
2023-02-24T08:56:24.397Z,87.14
2023-02-24T08:58:28.510Z,87.13
2023-02-24T09:00:49.228Z,87.24
2023-02-24T09:02:56.298Z,87.23
2023-02-24T09:05:04.070Z,87.17
2023-02-24T09:07:15.472Z,87.38
2023-02-24T09:09:21.274Z,87.13
2023-02-24T09:11:24.768Z,87.38
2023-02-24T09:13:33.184Z,87.39
2023-02-24T09:15:41.600Z,87.10
2023-02-24T09:18:01.429Z,87.36
2023-02-24T09:20:56.355Z,87.36
2023-02-24T09:23:03.498Z,87.41
2023-02-24T09:25:24.105Z,87.36
2023-02-24T09:27:29.366Z,87.50
2023-02-24T09:29:35.939Z,87.60
2023-02-24T09:31:55.471Z,87.29
2023-02-24T09:34:04.101Z,87.61
2023-02-24T09:36:11.118Z,87.56
2023-02-24T09:38:17.319Z,87.59
2023-02-24T09:40:38.203Z,87.51
2023-02-24T09:42:47.530Z,87.74
2023-02-24T09:44:55.778Z,87.68
2023-02-24T09:47:09.168Z,87.62
2023-02-24T09:49:18.342Z,87.70
2023-02-24T09:51:25.816Z,87.80
2023-02-24T09:53:41.209Z,87.65
2023-02-24T09:56:08.942Z,88.02
2023-02-24T09:58:29.329Z,87.87
2023-02-24T10:00:44.441Z,87.88
2023-02-24T10:03:00.233Z,88.04
2023-02-24T10:05:14.504Z,87.92
2023-02-24T10:07:25.606Z,88.07
2023-02-24T10:09:35.589Z,88.07
2023-02-24T10:11:49.284Z,87.95
2023-02-24T10:14:03.359Z,87.90
2023-02-24T10:16:13.557Z,88.11
2023-02-24T10:18:30.956Z,88.14
2023-02-24T10:20:40.547Z,88.23
2023-02-24T10:22:54.039Z,88.22
2023-02-24T10:25:12.075Z,88.26
2023-02-24T10:27:24.199Z,88.13
2023-02-24T10:29:39.338Z,88.30
2023-02-24T10:31:48.267Z,88.40
2023-02-24T10:33:56.968Z,88.20
2023-02-24T10:36:09.500Z,88.22
2023-02-24T10:38:14.631Z,88.38
2023-02-24T10:40:38.812Z,88.31
2023-02-24T10:42:46.853Z,88.37
2023-02-24T10:45:01.975Z,88.22
2023-02-24T10:47:14.740Z,88.16
2023-02-24T10:49:18.432Z,87.98
2023-02-24T10:51:31.948Z,88.12
2023-02-24T10:53:37.725Z,87.98
2023-02-24T10:56:14.907Z,88.10
2023-02-24T10:58:37.775Z,88.05
2023-02-24T11:00:59.271Z,88.21
2023-02-24T11:03:22.046Z,88.13
2023-02-24T11:05:38.549Z,88.23
2023-02-24T11:07:53.640Z,88.26
2023-02-24T11:10:14.095Z,88.27
2023-02-24T11:12:39.411Z,88.36
2023-02-24T11:15:23.992Z,88.25
2023-02-24T11:17:28.057Z,88.43
2023-02-24T11:19:34.044Z,88.49
2023-02-24T11:21:38.823Z,88.62
2023-02-24T11:23:46.278Z,88.63
2023-02-24T11:25:54.620Z,88.52
2023-02-24T11:27:58.965Z,88.78
2023-02-24T11:30:17.006Z,88.63
2023-02-24T11:32:39.049Z,88.63
2023-02-24T11:34:49.638Z,88.42
2023-02-24T11:37:02.905Z,88.22
2023-02-24T11:39:23.500Z,87.85
2023-02-24T11:41:31.710Z,87.72
2023-02-24T11:43:38.600Z,87.67
2023-02-24T11:45:47.646Z,87.46
2023-02-24T11:47:57.444Z,87.26
2023-02-24T11:50:36.569Z,87.16
2023-02-24T11:52:46.916Z,86.81
2023-02-24T11:54:55.157Z,86.95
2023-02-24T11:57:00.341Z,86.81
2023-02-24T11:59:10.278Z,86.83
2023-02-24T12:01:20.215Z,86.82
2023-02-24T12:03:31.049Z,86.67
2023-02-24T12:05:39.466Z,86.52
2023-02-24T12:07:45.476Z,86.44
2023-02-24T12:10:00.321Z,86.21
2023-02-24T12:12:14.992Z,86.31
2023-02-24T12:14:27.706Z,85.99
2023-02-24T12:16:36.878Z,85.81
2023-02-24T12:18:46.193Z,85.23
2023-02-24T12:20:52.379Z,85.38
2023-02-24T12:22:58.433Z,85.36
2023-02-24T12:25:02.121Z,85.38
2023-02-24T12:27:18.476Z,85.18
2023-02-24T12:29:42.669Z,84.98
2023-02-24T12:31:55.076Z,84.89
2023-02-24T12:34:08.709Z,85.42
2023-02-24T12:36:23.841Z,85.46
2023-02-24T12:38:36.749Z,85.70
2023-02-24T12:40:46.733Z,85.72
2023-02-24T12:43:02.296Z,85.88
2023-02-24T12:45:17.019Z,85.79
2023-02-24T12:47:28.483Z,86.19
2023-02-24T12:49:48.864Z,86.22
2023-02-24T12:52:05.077Z,86.40
2023-02-24T12:54:16.801Z,86.50
2023-02-24T12:56:24.782Z,86.59
2023-02-24T12:58:34.572Z,86.76
2023-02-24T13:00:51.116Z,86.88
2023-02-24T13:03:02.840Z,86.89
2023-02-24T13:05:14.673Z,87.10
2023-02-24T13:07:37.654Z,87.14
2023-02-24T13:09:48.600Z,87.23
2023-02-24T13:11:58.918Z,87.45
2023-02-24T13:14:11.983Z,87.48
2023-02-24T13:16:15.457Z,87.28
2023-02-24T13:18:26.117Z,87.32
2023-02-24T13:20:32.278Z,87.29
2023-02-24T13:22:35.685Z,87.09
2023-02-24T13:24:41.699Z,87.03
2023-02-24T13:26:45.670Z,87.07
2023-02-24T13:29:00.601Z,87.12
2023-02-24T13:31:08.598Z,86.94
2023-02-24T13:33:29.991Z,86.81
2023-02-24T13:35:36.666Z,86.69
2023-02-24T13:37:41.718Z,86.81
2023-02-24T13:39:45.420Z,86.83
2023-02-24T13:41:49.043Z,86.80
2023-02-24T13:43:59.064Z,86.77
2023-02-24T13:46:17.526Z,86.90
2023-02-24T13:48:43.254Z,86.38
2023-02-24T13:51:03.586Z,86.34
2023-02-24T13:53:33.387Z,85.78
2023-02-24T13:55:48.083Z,85.36
2023-02-24T13:58:10.889Z,85.18
2023-02-24T14:00:29.734Z,84.95
2023-02-24T14:02:42.872Z,84.71
2023-02-24T14:04:49.714Z,84.51
2023-02-24T14:06:57.617Z,84.48
2023-02-24T14:09:03.616Z,83.77
2023-02-24T14:11:10.754Z,83.61
2023-02-24T14:13:18.848Z,83.01
2023-02-24T14:15:26.840Z,82.56
2023-02-24T14:17:34.561Z,81.79
2023-02-24T14:19:39.384Z,81.29
2023-02-24T14:21:51.562Z,81.08
2023-02-24T14:24:02.372Z,80.43
2023-02-24T14:26:09.456Z,79.94
2023-02-24T14:28:23.469Z,79.71
2023-02-24T14:30:32.677Z,79.62
2023-02-24T14:32:36.750Z,79.46
2023-02-24T14:34:42.032Z,79.57
2023-02-24T14:36:47.184Z,79.59
2023-02-24T14:39:01.858Z,78.98
2023-02-24T14:41:12.046Z,78.97
2023-02-24T14:43:19.316Z,78.73
2023-02-24T14:45:26.329Z,78.47
2023-02-24T14:47:37.642Z,78.94
2023-02-24T14:49:42.891Z,79.09
2023-02-24T14:51:48.819Z,78.75
2023-02-24T14:53:55.462Z,78.81
2023-02-24T14:56:04.461Z,79.12
2023-02-24T14:58:15.742Z,79.39
2023-02-24T15:00:24.404Z,79.50
2023-02-24T15:02:34.708Z,78.91
2023-02-24T15:04:43.830Z,79.17
2023-02-24T15:09:26.442Z,78.96
2023-02-24T15:11:41.356Z,79.06
2023-02-24T15:13:48.369Z,78.92
2023-02-24T15:16:01.598Z,78.76
2023-02-24T15:18:13.445Z,78.79
2023-02-24T15:20:31.692Z,78.93
2023-02-24T15:22:39.460Z,79.01
2023-02-24T15:24:42.913Z,79.17
2023-02-24T15:26:53.122Z,79.52
2023-02-24T15:29:04.874Z,79.96
2023-02-24T15:31:22.248Z,79.95
2023-02-24T15:33:33.387Z,80.22
2023-02-24T15:35:40.530Z,80.44
2023-02-24T15:37:53.307Z,80.65
2023-02-24T15:40:03.508Z,80.57
2023-02-24T15:42:09.759Z,80.58
2023-02-24T15:44:35.742Z,80.70
2023-02-24T15:46:39.877Z,80.97
2023-02-24T15:48:44.776Z,80.86
2023-02-24T15:50:50.154Z,81.10
2023-02-24T15:52:58.232Z,81.24
2023-02-24T15:55:02.700Z,81.49
2023-02-24T15:57:07.401Z,81.50
2023-02-24T15:59:14.854Z,81.74
2023-02-24T16:01:18.376Z,81.51
2023-02-24T16:03:22.461Z,81.35
2023-02-24T16:05:27.614Z,81.33
2023-02-24T16:07:34.648Z,81.00
2023-02-24T16:09:41.702Z,80.93
2023-02-24T16:11:48.027Z,80.60
2023-02-24T16:13:56.061Z,80.62
2023-02-24T16:15:59.576Z,80.52
2023-02-24T16:18:03.439Z,80.53
2023-02-24T16:20:09.191Z,80.59
2023-02-24T16:22:12.701Z,80.62
2023-02-24T16:24:16.270Z,80.78
2023-02-24T16:26:23.807Z,80.85
2023-02-24T16:28:28.026Z,80.94
2023-02-24T16:30:32.189Z,80.87
2023-02-24T16:32:35.914Z,81.05
2023-02-24T16:34:39.662Z,81.08
2023-02-24T16:36:44.295Z,81.28
2023-02-24T16:38:50.878Z,81.47
2023-02-24T16:40:55.835Z,81.67
2023-02-24T16:43:01.314Z,81.62
2023-02-24T16:45:05.262Z,81.95
2023-02-24T16:47:13.844Z,81.96
2023-02-24T16:49:20.990Z,81.95
2023-02-24T16:51:24.625Z,82.09
2023-02-24T16:53:28.705Z,82.15
2023-02-24T16:55:32.571Z,82.17
2023-02-24T16:57:35.951Z,82.16
2023-02-24T16:59:40.869Z,82.08
2023-02-24T17:01:44.376Z,82.21
2023-02-24T17:03:50.076Z,82.01
2023-02-24T17:05:53.976Z,82.01
2023-02-24T17:07:58.574Z,81.87
2023-02-24T17:10:02.014Z,81.67
2023-02-24T17:12:06.006Z,81.72
2023-02-24T17:14:12.165Z,81.41
2023-02-24T17:16:16.992Z,81.14
2023-02-24T17:18:21.515Z,81.18
2023-02-24T17:20:25.364Z,81.05
2023-02-24T17:22:28.862Z,81.04
2023-02-24T17:24:32.373Z,80.95
2023-02-24T17:26:36.070Z,80.93
2023-02-24T17:28:39.512Z,80.85
2023-02-24T17:30:43.131Z,80.87
2023-02-24T17:32:48.135Z,80.81
2023-02-24T17:34:51.619Z,80.77
2023-02-24T17:36:55.495Z,80.88
2023-02-24T17:38:59.047Z,80.80
2023-02-24T17:41:02.875Z,80.87
2023-02-24T17:43:06.271Z,80.92
2023-02-24T17:45:12.033Z,80.92
2023-02-24T17:47:15.481Z,80.93
2023-02-24T17:49:20.264Z,80.80
2023-02-24T17:51:23.832Z,80.81
2023-02-24T17:53:28.558Z,80.75
2023-02-24T17:55:31.971Z,80.64
2023-02-24T17:57:36.242Z,80.61
2023-02-24T17:59:39.630Z,80.64
2023-02-24T18:01:42.990Z,80.51
2023-02-24T18:03:46.548Z,80.49
2023-02-24T18:05:59.217Z,80.53
2023-02-24T18:08:02.662Z,80.66
2023-02-24T18:10:07.467Z,80.69
2023-02-24T18:12:10.883Z,80.68
2023-02-24T18:14:14.771Z,80.77
2023-02-24T18:16:18.248Z,80.75
2023-02-24T18:18:21.738Z,80.94
2023-02-24T18:20:25.801Z,80.79
2023-02-24T18:22:30.653Z,81.03
2023-02-24T18:24:34.573Z,80.99
2023-02-24T18:26:38.038Z,80.92
2023-02-24T18:28:41.461Z,81.08
2023-02-24T18:30:44.896Z,80.98
2023-02-24T18:32:50.021Z,81.15
2023-02-24T18:34:53.533Z,81.13
2023-02-24T18:36:57.000Z,81.40
2023-02-24T18:39:01.837Z,81.19
2023-02-24T18:41:07.009Z,81.35
2023-02-24T18:43:10.464Z,81.37
2023-02-24T18:45:13.968Z,81.35
2023-02-24T18:47:17.422Z,81.17
2023-02-24T18:49:20.816Z,81.46
2023-02-24T18:51:26.305Z,81.59
2023-02-24T18:53:31.892Z,81.54
2023-02-24T18:55:37.514Z,81.67
2023-02-24T18:57:41.286Z,81.73
2023-02-24T18:59:44.804Z,81.68
2023-02-24T19:01:48.913Z,81.77
2023-02-24T19:03:53.348Z,81.92
2023-02-24T19:05:56.751Z,81.91
2023-02-24T19:08:00.114Z,81.82
2023-02-24T19:10:03.591Z,81.87
2023-02-24T19:12:09.064Z,81.59
2023-02-24T19:14:14.045Z,81.88
2023-02-24T19:16:18.414Z,81.90
2023-02-24T19:18:21.815Z,81.91
2023-02-24T19:20:25.177Z,81.54
2023-02-24T19:22:29.617Z,81.99
2023-02-24T19:24:34.302Z,81.92
2023-02-24T19:26:39.342Z,82.10
2023-02-24T19:28:45.080Z,82.26
2023-02-24T19:30:49.237Z,82.13
2023-02-24T19:32:53.451Z,82.42
2023-02-24T19:34:57.388Z,82.49
2023-02-24T19:37:00.854Z,82.37
2023-02-24T19:39:04.832Z,82.55
2023-02-24T19:41:08.283Z,82.64
2023-02-24T19:43:12.439Z,82.72
2023-02-24T19:45:17.658Z,82.94
2023-02-24T19:47:21.459Z,82.91
2023-02-24T19:49:25.185Z,83.10
2023-02-24T19:51:29.380Z,83.11
2023-02-24T19:53:32.814Z,83.23
2023-02-24T19:55:37.079Z,83.17
2023-02-24T19:57:40.762Z,83.23
2023-02-24T19:59:44.869Z,83.13
2023-02-24T20:01:52.717Z,83.40
2023-02-24T20:03:58.440Z,83.25
2023-02-24T20:06:02.500Z,83.22
2023-02-24T20:08:06.339Z,83.40
2023-02-24T20:10:11.767Z,83.05
2023-02-24T20:12:15.780Z,82.69
2023-02-24T20:14:20.984Z,82.56
2023-02-24T20:16:26.533Z,82.64
2023-02-24T20:18:31.955Z,82.36
2023-02-24T20:20:37.373Z,82.30
2023-02-24T20:22:41.440Z,82.21
2023-02-24T20:24:45.221Z,82.22
2023-02-24T20:26:51.215Z,82.24
2023-02-24T20:28:55.485Z,82.45
2023-02-24T20:31:06.600Z,82.62
2023-02-24T20:33:13.597Z,82.74
2023-02-24T20:35:18.793Z,82.91
2023-02-24T20:37:22.264Z,83.02
2023-02-24T20:39:25.995Z,82.92
2023-02-24T20:41:30.728Z,83.23
2023-02-24T20:43:34.600Z,83.34
2023-02-24T20:45:41.067Z,83.37
2023-02-24T20:47:44.551Z,83.64
2023-02-24T20:49:48.009Z,83.71
2023-02-24T20:51:52.943Z,83.83
2023-02-24T20:53:58.376Z,83.98
2023-02-24T20:56:02.894Z,84.03
2023-02-24T20:58:06.569Z,84.15
2023-02-24T21:00:11.230Z,84.13
2023-02-24T21:02:14.689Z,84.14
2023-02-24T21:04:20.649Z,83.96
2023-02-24T21:06:25.044Z,84.05
2023-02-24T21:08:30.105Z,83.72
2023-02-24T21:10:33.560Z,83.63
2023-02-24T21:12:36.948Z,83.23
2023-02-24T21:14:41.348Z,82.77
2023-02-24T21:16:46.952Z,82.57
2023-02-24T21:18:53.244Z,82.15
2023-02-24T21:20:56.754Z,82.01
2023-02-24T21:23:00.500Z,81.95
2023-02-24T21:25:05.925Z,81.65
2023-02-24T21:27:09.904Z,81.27
2023-02-24T21:29:13.271Z,80.89
2023-02-24T21:31:20.413Z,80.79
2023-02-24T21:33:23.980Z,80.16
2023-02-24T21:35:27.490Z,80.15
2023-02-24T21:37:32.853Z,79.68
2023-02-24T21:39:37.210Z,79.21
2023-02-24T21:41:42.023Z,78.87
2023-02-24T21:43:45.430Z,78.31
2023-02-24T21:45:49.740Z,77.82
2023-02-24T21:47:53.150Z,77.61
2023-02-24T21:49:56.498Z,77.15
2023-02-24T21:52:00.082Z,76.55
2023-02-24T21:54:04.935Z,76.20
2023-02-24T21:56:11.105Z,75.78
2023-02-24T21:58:17.427Z,75.46
2023-02-24T22:00:22.416Z,75.06
2023-02-24T22:02:26.956Z,74.51
2023-02-24T22:04:30.381Z,74.28
2023-02-24T22:06:35.637Z,73.78
2023-02-24T22:08:43.408Z,73.70
2023-02-24T22:10:47.388Z,73.56
2023-02-24T22:12:51.014Z,73.51
2023-02-24T22:14:55.818Z,73.42
2023-02-24T22:16:59.638Z,73.42
2023-02-24T22:19:03.278Z,73.60
2023-02-24T22:21:08.506Z,73.69
2023-02-24T22:23:11.958Z,73.48
2023-02-24T22:25:15.387Z,73.26
2023-02-24T22:27:19.032Z,73.64
2023-02-24T22:29:22.452Z,73.54
2023-02-24T22:31:30.399Z,73.76
2023-02-24T22:33:36.143Z,73.77
2023-02-24T22:35:39.557Z,73.53
2023-02-24T22:37:43.147Z,73.83
2023-02-24T22:39:46.507Z,73.72
2023-02-24T22:41:52.440Z,73.90
2023-02-24T22:43:55.861Z,73.96
2023-02-24T22:46:00.729Z,73.67
2023-02-24T22:48:05.686Z,73.99
2023-02-24T22:50:10.749Z,73.95
2023-02-24T22:52:16.770Z,73.89
2023-02-24T22:54:20.316Z,74.04
2023-02-24T22:56:26.915Z,73.96
2023-02-24T22:58:30.441Z,73.99
2023-02-24T23:00:33.923Z,73.86
2023-02-24T23:02:37.602Z,73.79
2023-02-24T23:04:44.092Z,73.88
2023-02-24T23:06:48.399Z,73.66
2023-02-24T23:08:52.941Z,73.86
2023-02-24T23:10:57.245Z,73.79
2023-02-24T23:13:00.642Z,73.73
2023-02-24T23:15:04.232Z,73.98
2023-02-24T23:17:08.664Z,73.87
2023-02-24T23:19:16.143Z,73.77
2023-02-24T23:21:23.481Z,73.79
2023-02-24T23:23:27.302Z,73.78
2023-02-24T23:25:31.342Z,73.86
2023-02-24T23:27:35.439Z,73.83
2023-02-24T23:29:38.788Z,73.92
2023-02-24T23:31:43.371Z,73.81
2023-02-24T23:33:46.957Z,73.95
2023-02-24T23:35:51.005Z,73.84
2023-02-24T23:37:55.811Z,74.03
2023-02-24T23:39:59.218Z,73.95
2023-02-24T23:42:02.656Z,73.78
2023-02-24T23:44:07.398Z,73.86
2023-02-24T23:46:12.975Z,73.87
2023-02-24T23:48:16.517Z,73.94
2023-02-24T23:50:20.319Z,74.06
2023-02-24T23:52:24.154Z,74.14
2023-02-24T23:54:29.033Z,73.78
2023-02-24T23:56:32.397Z,73.79
2023-02-24T23:58:35.977Z,73.72
